Time;durP1;ratioP1;P1;durP2;ratioP2;P2;SDS_P1;SDS_P2;PMS_P1;PMS_P2;Temp;Humidity;BMP_temperature;BMP_pressure;BME280_temperature;BME280_humidity;BME280_pressure;Samples;Min_cycle;Max_cycle;Signal;HPM_P1;HPM_P2
2022/04/14 00:00:10;;;;;;;;;11.50;8.50;;;;;16.90;61.61;101561.69;5158877;27;45277;-73
2022/04/14 00:02:35;;;;;;;;;10.00;10.00;;;;;16.87;61.05;101535.53;5157860;27;46563;-75
2022/04/14 00:05:00;;;;;;;;;7.25;7.25;;;;;16.71;61.34;101522.69;5158103;27;45265;-75
2022/04/14 00:07:26;;;;;;;;;9.50;9.50;;;;;16.80;61.25;101540.81;5158371;27;45483;-73
2022/04/14 00:09:51;;;;;;;;;14.75;9.00;;;;;16.76;61.42;101537.16;5165293;27;45197;-76
2022/04/14 00:12:16;;;;;;;;;9.25;8.50;;;;;16.83;61.41;101548.94;5158188;27;45772;-75
2022/04/14 00:14:42;;;;;;;;;9.00;7.67;;;;;16.77;61.48;101552.47;5158160;27;45385;-73
2022/04/14 00:17:08;;;;;;;;;8.00;7.75;;;;;16.72;62.25;101556.91;5158470;27;45561;-72
2022/04/14 00:19:34;;;;;;;;;8.50;8.50;;;;;16.69;61.94;101560.44;5158401;27;45719;-73
2022/04/14 00:21:59;;;;;;;;;7.50;7.50;;;;;16.63;61.72;101538.78;5158321;27;46315;-72
2022/04/14 00:24:24;;;;;;;;;10.00;8.25;;;;;16.26;61.76;101480.72;5158119;27;45361;-73
2022/04/14 00:26:50;;;;;;;;;10.00;9.75;;;;;16.68;62.09;101555.94;5158195;27;45432;-72
2022/04/14 00:29:15;;;;;;;;;7.50;7.50;;;;;16.68;61.88;101546.94;5158002;27;45393;-74
2022/04/14 00:31:40;;;;;;;;;7.50;7.50;;;;;16.57;62.32;101527.91;5157911;27;46249;-75
2022/04/14 00:34:06;;;;;;;;;10.25;9.50;;;;;16.44;62.34;101512.44;5157776;27;45293;-71
2022/04/14 00:36:33;;;;;;;;;8.75;6.75;;;;;16.13;62.00;101456.25;5157846;27;45424;-68
2022/04/14 00:38:58;;;;;;;;;8.75;8.25;;;;;16.35;62.20;101491.59;5158138;27;45607;-72
2022/04/14 00:41:24;;;;;;;;;10.75;10.75;;;;;16.06;61.70;101434.59;5157452;27;46260;-70
2022/04/14 00:43:53;;;;;;;;;12.75;10.25;;;;;16.59;61.63;101540.50;5157622;27;45498;-71
2022/04/14 00:46:19;;;;;;;;;11.75;11.75;;;;;16.63;62.41;101538.78;5158171;27;45470;-70
2022/04/14 00:48:45;;;;;;;;;7.50;7.50;;;;;16.63;62.11;101545.97;5158096;27;45403;-71
2022/04/14 00:51:11;;;;;;;;;13.25;12.00;;;;;16.57;62.59;101534.19;5157363;27;46095;-74
2022/04/14 00:53:37;;;;;;;;;14.00;12.25;;;;;16.62;62.34;101545.06;5157328;27;45376;-74
2022/04/14 00:56:04;;;;;;;;;11.00;11.00;;;;;16.54;62.07;101527.84;5157382;27;45447;-72
2022/04/14 00:58:29;;;;;;;;;9.75;9.75;;;;;16.56;62.20;101539.56;5157740;27;45357;-75
2022/04/14 01:00:55;;;;;;;;;15.00;10.25;;;;;16.26;62.41;101478.91;5156918;27;45398;-73
2022/04/14 01:03:21;;;;;;;;;12.25;11.00;;;;;16.59;62.25;101545.00;5156547;27;45391;-75
2022/04/14 01:05:47;;;;;;;;;13.50;12.75;;;;;16.59;62.48;101551.31;5157197;27;45527;-74
2022/04/14 01:08:20;;;;;;;;;11.00;9.50;;;;;16.58;62.71;101546.81;5157563;27;45383;-73
2022/04/14 01:10:47;;;;;;;;;9.50;9.50;;;;;16.53;62.77;101535.06;5157108;27;46456;-70
2022/04/14 01:13:17;;;;;;;;;13.75;11.75;;;;;16.57;62.58;101541.41;5157068;27;45414;-70
2022/04/14 01:15:47;;;;;;;;;16.50;9.50;;;;;16.52;62.48;101532.34;5137937;27;45442;-70
2022/04/14 01:18:14;;;;;;;;;10.25;10.25;;;;;16.56;62.35;101542.28;5141526;27;45437;-74
2022/04/14 01:20:42;;;;;;;;;12.25;10.50;;;;;16.52;62.75;101546.72;5115244;27;45473;-75
2022/04/14 01:23:09;;;;;;;;;9.00;8.50;;;;;16.51;62.72;101558.38;5115408;27;45223;-74
2022/04/14 01:25:35;;;;;;;;;10.50;10.25;;;;;16.50;63.63;101567.38;5115123;27;45296;-72
2022/04/14 01:28:02;;;;;;;;;8.75;7.50;;;;;16.50;62.81;101553.88;5115515;27;45426;-74
2022/04/14 01:30:28;;;;;;;;;9.00;8.50;;;;;16.53;63.33;101561.09;5114624;27;45507;-73
2022/04/14 01:32:53;;;;;;;;;12.75;10.75;;;;;16.14;62.96;101489.53;5115306;27;45551;-74
2022/04/14 01:35:19;;;;;;;;;9.00;8.50;;;;;16.43;63.05;101548.38;5115510;27;45348;-71
2022/04/14 01:37:44;;;;;;;;;12.00;9.25;;;;;16.26;62.72;101504.97;5115443;27;45383;-74
2022/04/14 01:40:10;;;;;;;;;8.67;8.67;;;;;16.40;63.36;101542.06;5114948;27;48236;-73
2022/04/14 01:42:36;;;;;;;;;9.75;8.50;;;;;16.48;63.27;101557.44;5115641;27;45459;-71
2022/04/14 01:45:01;;;;;;;;;11.75;9.50;;;;;16.49;63.29;101557.47;5115182;27;45441;-72
2022/04/14 01:47:27;;;;;;;;;8.50;8.50;;;;;15.96;63.03;101469.47;5115892;27;45482;-70
2022/04/14 01:49:52;;;;;;;;;12.00;9.25;;;;;16.42;63.41;101543.88;5115065;27;45915;-72
2022/04/14 01:52:18;;;;;;;;;11.25;9.25;;;;;16.49;63.03;101554.75;5115534;27;45383;-72
2022/04/14 01:54:43;;;;;;;;;11.00;9.50;;;;;16.52;63.10;101554.81;5115020;27;45354;-71
2022/04/14 01:57:09;;;;;;;;;9.25;8.25;;;;;16.11;63.12;101490.38;5113799;27;45495;-70
2022/04/14 01:59:34;;;;;;;;;9.25;9.25;;;;;16.54;63.35;101552.13;5114480;27;45441;-70
2022/04/14 02:01:59;;;;;;;;;8.50;7.50;;;;;16.08;63.02;101474.13;5114740;27;45344;-70
2022/04/14 02:04:25;;;;;;;;;8.75;8.75;;;;;16.42;63.40;101530.41;5114847;27;45447;-70
2022/04/14 02:06:50;;;;;;;;;11.50;11.50;;;;;16.42;62.87;101533.09;5115222;27;45312;-74
2022/04/14 02:09:16;;;;;;;;;11.50;10.25;;;;;16.49;62.94;101546.66;5114603;27;45422;-73
2022/04/14 02:11:41;;;;;;;;;10.25;9.25;;;;;16.08;63.21;101471.44;5115380;27;45361;-70
2022/04/14 02:14:06;;;;;;;;;11.75;10.50;;;;;16.40;63.65;101533.06;5117184;27;48607;-74
2022/04/14 02:16:32;;;;;;;;;8.25;8.25;;;;;16.44;63.17;101551.09;5119551;27;45337;-70
2022/04/14 02:18:57;;;;;;;;;11.75;10.75;;;;;16.43;63.31;101548.38;5142740;27;54405;-70
2022/04/14 02:21:22;;;;;;;;;10.00;9.00;;;;;16.38;63.84;101548.28;5141127;27;45300;-75
2022/04/14 02:23:48;;;;;;;;;8.00;8.00;;;;;16.37;64.00;101547.41;5160049;27;45363;-75
2022/04/14 02:26:15;;;;;;;;;11.50;8.50;;;;;16.35;63.78;101548.25;5160336;27;45557;-70
2022/04/14 02:28:41;;;;;;;;;12.75;11.25;;;;;16.34;63.82;101539.25;5159271;27;45491;-74
2022/04/14 02:31:09;;;;;;;;;13.25;9.50;;;;;16.34;64.17;101541.94;5159883;27;45444;-71
2022/04/14 02:33:37;;;;;;;;;12.25;10.75;;;;;16.21;63.93;101521.97;5160178;27;45516;-71
2022/04/14 02:36:03;;;;;;;;;15.00;11.25;;;;;16.11;64.41;101497.56;5159984;27;45316;-71
2022/04/14 02:38:28;;;;;;;;;13.00;9.75;;;;;16.34;64.33;101546.44;5160637;27;45454;-72
2022/04/14 02:40:53;;;;;;;;;9.25;9.25;;;;;16.32;64.47;101549.13;5159188;27;54100;-70
2022/04/14 02:43:18;;;;;;;;;15.00;11.75;;;;;16.33;64.47;101550.00;5159928;27;45388;-75
2022/04/14 02:45:44;;;;;;;;;14.25;11.25;;;;;16.10;64.29;101517.28;5159674;27;45445;-72
2022/04/14 02:48:09;;;;;;;;;11.00;9.50;;;;;16.19;64.88;101539.91;5159578;27;46195;-70
2022/04/14 02:50:36;;;;;;;;;14.00;10.25;;;;;16.24;64.80;101553.47;5141050;27;45454;-71
2022/04/14 02:53:01;;;;;;;;;13.25;9.75;;;;;15.90;64.51;101490.91;5159840;27;45393;-72
2022/04/14 02:55:27;;;;;;;;;11.50;10.50;;;;;16.25;64.71;101554.38;5159561;27;45353;-72
2022/04/14 02:57:52;;;;;;;;;10.00;10.00;;;;;16.26;64.54;101554.41;5158910;27;46671;-72
2022/04/14 03:00:17;;;;;;;;;13.50;10.50;;;;;15.87;64.27;101488.19;5159270;27;45374;-72
2022/04/14 03:02:43;;;;;;;;;11.50;11.50;;;;;16.20;64.38;101541.75;5159428;27;45589;-72
2022/04/14 03:05:09;;;;;;;;;12.50;12.50;;;;;16.27;64.55;101544.53;5159795;27;45324;-72
2022/04/14 03:07:35;;;;;;;;;13.50;11.25;;;;;16.23;64.37;101538.19;5159836;27;46198;-70
2022/04/14 03:10:00;;;;;;;;;9.00;8.50;;;;;16.29;64.78;101546.38;5159084;27;45447;-73
2022/04/14 03:12:26;;;;;;;;;12.75;8.50;;;;;16.16;64.09;101528.19;5159649;27;45458;-71
2022/04/14 03:14:51;;;;;;;;;12.25;9.75;;;;;16.23;64.39;101546.25;5159594;27;45358;-71
2022/04/14 03:17:17;;;;;;;;;25.25;25.00;;;;;16.30;64.65;101558.97;5158866;27;45926;-72
2022/04/14 03:19:43;;;;;;;;;13.00;11.75;;;;;16.13;64.64;101544.31;5158881;27;45565;-71
2022/04/14 03:22:09;;;;;;;;;14.00;12.25;;;;;16.22;64.63;101560.66;5159309;27;45476;-74
2022/04/14 03:24:34;;;;;;;;;15.00;14.00;;;;;16.20;64.93;101567.78;5159223;27;45550;-71
2022/04/14 03:26:59;;;;;;;;;14.25;13.75;;;;;16.05;64.76;101535.19;5158238;27;45455;-72
2022/04/14 03:29:26;;;;;;;;;14.50;13.50;;;;;16.19;64.60;101561.50;5159268;27;45426;-71
2022/04/14 03:31:51;;;;;;;;;15.00;13.75;;;;;16.17;65.04;101571.34;5160656;27;45431;-74
2022/04/14 03:34:16;;;;;;;;;16.00;15.00;;;;;16.15;64.75;101562.34;5163939;27;45400;-71
2022/04/14 03:36:42;;;;;;;;;12.00;11.50;;;;;16.15;64.56;101567.72;5139723;27;48451;-72
2022/04/14 03:39:07;;;;;;;;;17.75;15.50;;;;;16.00;64.71;101545.88;5158730;27;45288;-72
2022/04/14 03:41:32;;;;;;;;;19.75;18.75;;;;;16.06;64.64;101572.97;5159228;27;45514;-71
2022/04/14 03:43:58;;;;;;;;;20.50;19.50;;;;;15.97;64.83;101559.31;5158795;27;45276;-73
2022/04/14 03:46:23;;;;;;;;;20.25;19.50;;;;;15.99;65.02;101577.34;5158400;27;45396;-73
2022/04/14 03:48:49;;;;;;;;;19.50;17.75;;;;;15.88;65.54;101554.69;5158344;27;45538;-70
2022/04/14 03:51:15;;;;;;;;;13.50;11.50;;;;;15.92;65.07;101583.50;5158832;27;45383;-69
2022/04/14 03:53:41;;;;;;;;;22.75;18.50;;;;;15.83;65.60;101564.47;5157541;27;45446;-73
2022/04/14 03:56:07;;;;;;;;;21.25;18.25;;;;;15.94;65.19;101586.22;5158417;27;45415;-72
2022/04/14 03:58:32;;;;;;;;;19.25;15.75;;;;;15.95;65.33;101588.94;5157110;27;45745;-76
2022/04/14 04:00:58;;;;;;;;;21.50;21.00;;;;;15.95;65.29;101583.53;5158530;27;45430;-73
2022/04/14 04:03:23;;;;;;;;;34.00;29.25;;;;;15.86;65.16;101567.22;5158685;27;45351;-75
2022/04/14 04:05:48;;;;;;;;;33.75;27.25;;;;;15.85;65.57;101576.16;5158779;27;46246;-76
2022/04/14 04:08:14;;;;;;;;;34.50;29.50;;;;;15.87;65.04;101582.50;5158760;27;45421;-70
2022/04/14 04:10:39;;;;;;;;;36.00;30.00;;;;;15.75;65.28;101563.38;5158541;27;45333;-75
2022/04/14 04:13:05;;;;;;;;;28.25;24.75;;;;;15.74;65.48;101567.88;5159288;27;45542;-73
2022/04/14 04:15:33;;;;;;;;;29.50;28.75;;;;;15.81;65.59;101574.31;5157919;27;45482;-72
2022/04/14 04:17:59;;;;;;;;;30.50;27.75;;;;;15.81;65.59;101572.53;5139224;27;45454;-72
2022/04/14 04:20:25;;;;;;;;;26.50;25.25;;;;;15.80;65.34;101561.72;5157719;27;45364;-72
2022/04/14 04:22:50;;;;;;;;;27.75;24.75;;;;;15.80;65.75;101565.31;5158156;27;45355;-75
2022/04/14 04:25:15;;;;;;;;;30.00;27.00;;;;;15.70;65.74;101544.44;5157948;27;45396;-76
2022/04/14 04:27:41;;;;;;;;;22.75;21.00;;;;;15.76;65.37;101562.56;5161038;27;45488;-70
2022/04/14 04:30:07;;;;;;;;;26.25;23.75;;;;;15.78;65.73;101575.16;5160496;27;45434;-72
2022/04/14 04:32:34;;;;;;;;;25.75;22.50;;;;;15.76;65.58;101567.94;5158182;27;45315;-73
2022/04/14 04:35:04;;;;;;;;;24.75;24.75;;;;;15.75;65.36;101579.56;5157464;27;46099;-74
2022/04/14 04:37:30;;;;;;;;;25.00;23.25;;;;;15.66;65.40;101572.22;5156012;27;45311;-69
2022/04/14 04:39:56;;;;;;;;;26.50;22.25;;;;;15.22;65.29;101500.47;5157620;27;45445;-73
2022/04/14 04:42:21;;;;;;;;;28.00;26.25;;;;;15.63;65.70;101577.53;5158096;27;45368;-72
2022/04/14 04:44:47;;;;;;;;;28.50;24.00;;;;;15.71;65.88;101601.94;5156548;27;46122;-72
2022/04/14 04:47:12;;;;;;;;;24.00;23.00;;;;;15.63;65.60;101586.53;5157072;27;45452;-73
2022/04/14 04:49:37;;;;;;;;;36.75;31.50;;;;;15.69;65.80;101604.59;5156252;27;45413;-71
2022/04/14 04:52:03;;;;;;;;;22.00;20.50;;;;;15.60;65.57;101597.22;5168155;27;45426;-74
2022/04/14 04:54:28;;;;;;;;;30.00;26.75;;;;;15.72;65.34;101607.34;5166424;27;45546;-74
2022/04/14 04:56:54;;;;;;;;;28.25;28.25;;;;;15.41;65.59;101560.03;5163967;27;45459;-69
2022/04/14 04:59:19;;;;;;;;;32.25;28.50;;;;;15.70;65.60;101610.91;5174248;27;44918;-77
2022/04/14 05:01:45;;;;;;;;;28.50;26.00;;;;;15.66;65.44;101612.63;5169558;27;45503;-74
2022/04/14 05:04:11;;;;;;;;;27.50;24.75;;;;;15.57;65.96;101601.66;5167236;27;46293;-70
2022/04/14 05:06:39;;;;;;;;;34.00;27.50;;;;;15.64;65.88;101606.28;5172621;27;45462;-73
2022/04/14 05:09:05;;;;;;;;;28.75;27.25;;;;;15.47;65.49;101577.22;5174148;27;45199;-75
2022/04/14 05:11:31;;;;;;;;;24.00;23.00;;;;;15.63;65.71;101608.06;5155984;27;45161;-72
2022/04/14 05:13:57;;;;;;;;;26.75;25.50;;;;;15.65;65.57;101603.63;5172480;27;45404;-75
2022/04/14 05:16:22;;;;;;;;;42.00;35.50;;;;;15.67;65.56;101606.34;5172913;27;45512;-75
2022/04/14 05:18:48;;;;;;;;;36.25;32.25;;;;;15.60;65.64;101593.63;5173530;27;45876;-72
2022/04/14 05:21:13;;;;;;;;;46.75;39.00;;;;;15.59;65.75;101590.06;5171006;27;45819;-75
2022/04/14 05:23:39;;;;;;;;;37.75;31.25;;;;;15.48;65.80;101578.16;5156313;27;45477;-74
2022/04/14 05:26:04;;;;;;;;;42.25;30.25;;;;;15.66;65.63;101613.53;5158630;27;45455;-70
2022/04/14 05:28:29;;;;;;;;;39.50;30.75;;;;;15.45;66.14;101578.09;5162603;27;45642;-69
2022/04/14 05:30:55;;;;;;;;;24.50;23.00;;;;;15.49;65.75;101579.94;5157175;27;45298;-70
2022/04/14 05:33:20;;;;;;;;;27.25;23.75;;;;;15.56;66.19;101592.69;5156635;27;45845;-70
2022/04/14 05:35:46;;;;;;;;;35.50;29.75;;;;;15.71;65.96;101616.31;5157244;27;45463;-74
2022/04/14 05:38:11;;;;;;;;;26.75;26.75;;;;;15.51;65.96;101593.44;5139686;27;45404;-73
2022/04/14 05:40:41;;;;;;;;;31.25;28.75;;;;;15.63;66.38;101618.84;5170975;27;45146;-71
2022/04/14 05:43:09;;;;;;;;;31.50;29.25;;;;;15.72;66.45;101628.88;5158934;27;45426;-73
2022/04/14 05:45:37;;;;;;;;;29.50;27.50;;;;;15.74;66.09;101628.91;5156050;27;45421;-71
2022/04/14 05:48:03;;;;;;;;;34.50;32.00;;;;;15.43;66.43;101577.16;5156561;27;45440;-73
2022/04/14 05:50:28;;;;;;;;;33.25;26.25;;;;;15.32;66.08;101568.84;5160584;27;45276;-69
2022/04/14 05:52:55;;;;;;;;;38.25;30.25;;;;;15.72;65.53;101634.28;5160216;27;46354;-72
2022/04/14 05:55:20;;;;;;;;;34.00;27.75;;;;;15.69;65.97;101636.00;5159838;27;45310;-70
2022/04/14 05:57:46;;;;;;;;;37.75;29.75;;;;;15.51;66.33;101601.53;5160022;27;45472;-65
2022/04/14 06:00:13;;;;;;;;;28.00;28.00;;;;;15.62;66.19;101633.22;5160420;27;45589;-66
2022/04/14 06:02:39;;;;;;;;;30.50;26.25;;;;;15.62;66.06;101624.19;5161160;27;46548;-65
2022/04/14 06:05:05;;;;;;;;;39.00;33.75;;;;;15.73;66.00;101637.91;5161414;27;45401;-70
2022/04/14 06:07:30;;;;;;;;;60.00;48.00;;;;;15.39;66.10;101572.56;5161706;27;45366;-68
2022/04/14 06:09:55;;;;;;;;;45.25;36.50;;;;;15.49;65.88;101593.41;5142410;27;45398;-71
2022/04/14 06:12:21;;;;;;;;;42.50;32.00;;;;;15.74;66.30;101634.31;5160255;27;46079;-66
2022/04/14 06:14:46;;;;;;;;;37.50;29.75;;;;;15.77;66.20;101627.25;5159889;27;45471;-68
2022/04/14 06:17:11;;;;;;;;;44.75;36.50;;;;;15.69;65.82;101618.06;5140738;27;45509;-68
2022/04/14 06:19:38;;;;;;;;;45.00;37.50;;;;;15.75;66.56;101626.25;5160005;27;45655;-67
2022/04/14 06:22:03;;;;;;;;;34.25;30.50;;;;;15.75;65.67;101625.34;5159649;27;45571;-68
2022/04/14 06:24:29;;;;;;;;;39.25;32.75;;;;;15.44;65.81;101574.50;5159103;27;45499;-68
2022/04/14 06:26:54;;;;;;;;;37.75;33.50;;;;;15.84;65.96;101656.13;5159925;27;45407;-71
2022/04/14 06:29:19;;;;;;;;;38.75;32.50;;;;;15.85;66.07;101665.09;5159599;27;45717;-67
2022/04/14 06:31:45;;;;;;;;;38.75;33.25;;;;;15.60;66.25;101621.47;5158628;27;46940;-68
2022/04/14 06:34:10;;;;;;;;;42.25;34.75;;;;;15.83;66.00;101666.88;5158839;27;45340;-67
2022/04/14 06:36:35;;;;;;;;;39.75;32.00;;;;;15.78;66.10;101661.38;5159271;27;45393;-68
2022/04/14 06:39:01;;;;;;;;;42.50;32.25;;;;;15.84;65.69;101672.28;5159559;27;45369;-76
2022/04/14 06:41:26;;;;;;;;;33.00;30.75;;;;;15.69;65.66;101652.16;5159081;27;46030;-67
2022/04/14 06:43:52;;;;;;;;;34.50;30.50;;;;;15.76;65.72;101657.75;5159823;27;45388;-73
2022/04/14 06:46:18;;;;;;;;;31.00;30.25;;;;;15.95;65.76;101676.97;5159610;27;45679;-72
2022/04/14 06:48:44;;;;;;;;;36.00;30.50;;;;;15.87;65.46;101654.34;5159232;27;45445;-67
2022/04/14 06:51:13;;;;;;;;;36.00;30.75;;;;;16.05;65.49;101681.66;5159091;27;45432;-76
2022/04/14 06:53:38;;;;;;;;;30.00;28.50;;;;;15.99;65.40;101662.69;5158824;27;45560;-76
2022/04/14 06:56:07;;;;;;;;;33.50;27.50;;;;;16.00;64.99;101662.72;5158651;27;45308;-77
2022/04/14 06:58:32;;;;;;;;;36.25;27.50;;;;;15.95;64.92;101650.00;5158848;27;45450;-72
2022/04/14 07:00:58;;;;;;;;;29.00;28.25;;;;;15.95;64.89;101639.22;5157602;27;45793;-75
2022/04/14 07:03:26;;;;;;;;;30.00;28.00;;;;;16.02;64.19;101647.47;5158566;27;45273;-68
2022/04/14 07:05:54;;;;;;;;;35.00;31.00;;;;;16.30;64.07;101676.69;5158660;27;45238;-72
2022/04/14 07:08:21;;;;;;;;;38.50;30.00;;;;;16.36;63.90;101680.41;5158903;27;45565;-72
2022/04/14 07:10:46;;;;;;;;;31.75;24.75;;;;;16.42;64.19;101676.03;5159036;27;45473;-72
2022/04/14 07:13:12;;;;;;;;;29.50;27.25;;;;;16.21;64.33;101629.81;5158657;27;45418;-68
2022/04/14 07:15:37;;;;;;;;;41.00;33.25;;;;;16.64;64.48;101688.97;5158308;27;45276;-67
2022/04/14 07:18:02;;;;;;;;;39.25;32.50;;;;;16.74;63.29;101695.44;5158095;27;45371;-69
2022/04/14 07:20:30;;;;;;;;;33.25;28.75;;;;;16.82;63.23;101692.88;5158300;27;45784;-66
2022/04/14 07:22:58;;;;;;;;;36.75;33.50;;;;;16.87;62.27;101692.09;5157849;27;45413;-68
2022/04/14 07:25:24;;;;;;;;;56.25;42.75;;;;;16.66;62.54;101656.63;5158351;27;45420;-69
2022/04/14 07:27:49;;;;;;;;;40.75;30.75;;;;;16.91;61.98;101693.97;5158622;27;45588;-73
2022/04/14 07:30:15;;;;;;;;;67.50;53.50;;;;;16.92;61.77;101694.84;5158871;27;45657;-72
2022/04/14 07:32:45;;;;;;;;;39.00;34.00;;;;;16.70;62.03;101677.41;5158332;27;45545;-72
2022/04/14 07:35:12;;;;;;;;;42.00;37.00;;;;;16.74;62.45;101688.25;5158705;27;45374;-67
2022/04/14 07:37:37;;;;;;;;;46.25;36.25;;;;;16.82;62.69;101703.66;5158445;27;45338;-72
2022/04/14 07:40:07;;;;;;;;;31.00;27.75;;;;;16.75;61.62;101706.25;5157779;27;46104;-70
2022/04/14 07:42:38;;;;;;;;;32.75;29.25;;;;;16.72;61.69;101697.22;5158805;27;45497;-73
2022/04/14 07:45:06;;;;;;;;;33.00;32.00;;;;;16.38;62.40;101650.78;5158320;27;45361;-71
2022/04/14 07:47:31;;;;;;;;;36.75;31.50;;;;;16.50;62.55;101679.75;5158541;27;45307;-75
2022/04/14 07:49:56;;;;;;;;;38.75;33.25;;;;;16.54;62.02;101706.81;5139236;27;45340;-73
2022/04/14 07:52:22;;;;;;;;;35.25;30.25;;;;;16.50;62.23;101709.41;5158594;27;45355;-70
2022/04/14 07:54:47;;;;;;;;;34.25;31.50;;;;;16.36;62.07;101687.59;5157822;27;45307;-66
2022/04/14 07:57:12;;;;;;;;;27.75;25.00;;;;;16.50;62.34;101704.03;5157909;27;45282;-67
2022/04/14 07:59:38;;;;;;;;;35.50;29.75;;;;;16.14;62.11;101648.59;5158325;27;45612;-67
2022/04/14 08:02:03;;;;;;;;;29.75;29.50;;;;;16.09;62.01;101648.50;5158521;27;45489;-67
2022/04/14 08:04:30;;;;;;;;;28.50;27.00;;;;;16.40;61.97;101703.88;5161348;27;45350;-68
2022/04/14 08:06:56;;;;;;;;;37.00;32.25;;;;;16.23;62.29;101667.59;5160511;27;45494;-73
2022/04/14 08:09:21;;;;;;;;;26.50;24.00;;;;;16.51;62.07;101713.94;5159931;27;46359;-73
2022/04/14 08:11:47;;;;;;;;;28.50;25.25;;;;;16.57;60.67;101722.16;5159439;27;45625;-67
2022/04/14 08:14:12;;;;;;;;;31.00;28.50;;;;;16.55;60.71;101697.84;5157861;27;45420;-72
2022/04/14 08:16:38;;;;;;;;;32.25;29.00;;;;;16.69;60.49;101714.25;5158184;27;45549;-73
2022/04/14 08:19:03;;;;;;;;;31.50;30.75;;;;;16.69;60.59;101713.34;5157306;27;46339;-74
2022/04/14 08:21:29;;;;;;;;;31.00;25.75;;;;;16.86;59.95;101724.44;5158017;27;45632;-70
2022/04/14 08:23:54;;;;;;;;;28.75;28.50;;;;;16.89;60.45;101709.19;5157580;27;45231;-69
2022/04/14 08:26:21;;;;;;;;;30.50;27.25;;;;;17.03;59.56;101720.22;5157950;27;45750;-70
2022/04/14 08:28:47;;;;;;;;;25.75;22.00;;;;;17.11;59.53;101720.38;5156962;27;46224;-73
2022/04/14 08:31:14;;;;;;;;;32.50;25.00;;;;;16.95;58.66;101684.13;5138577;27;45418;-72
2022/04/14 08:33:40;;;;;;;;;31.50;26.75;;;;;17.23;58.75;101720.53;5157586;27;45712;-73
2022/04/14 08:36:12;;;;;;;;;27.00;25.00;;;;;17.27;58.88;101708.91;5157899;27;45372;-69
2022/04/14 08:38:48;;;;;;;;;24.00;22.00;;;;;17.25;58.32;101696.25;5157053;27;45372;-72
2022/04/14 08:41:17;;;;;;;;;34.00;29.75;;;;;17.50;58.05;101702.88;5157355;27;45535;-71
2022/04/14 08:43:58;;;;;;;;;72.00;54.75;;;;;17.64;58.17;101713.88;5157027;27;45370;-72
2022/04/14 08:46:25;;;;;;;;;35.50;26.00;;;;;17.77;57.43;101720.31;5156544;27;45495;-75
2022/04/14 08:48:52;;;;;;;;;25.75;24.25;;;;;17.76;56.95;101707.72;5137810;27;47305;-68
2022/04/14 08:51:21;;;;;;;;;26.75;25.75;;;;;17.43;56.54;101634.34;5157073;27;45287;-74
2022/04/14 08:53:48;;;;;;;;;30.50;22.50;;;;;17.93;56.71;101716.06;5156978;27;45413;-67
2022/04/14 08:56:14;;;;;;;;;22.75;22.75;;;;;17.94;56.23;101699.84;5157828;27;45471;-67
2022/04/14 08:58:44;;;;;;;;;31.75;27.75;;;;;18.01;55.77;101717.06;5156594;27;46461;-69
2022/04/14 09:01:12;;;;;;;;;28.00;24.00;;;;;17.88;55.93;101720.50;5156923;27;45427;-69
2022/04/14 09:03:37;;;;;;;;;27.25;27.00;;;;;17.92;56.29;101712.44;5156794;27;45296;-72
2022/04/14 09:06:03;;;;;;;;;29.75;25.50;;;;;17.79;56.37;101683.44;5157250;27;45441;-68
2022/04/14 09:08:28;;;;;;;;;27.25;24.00;;;;;18.10;56.38;101722.56;5156920;27;45402;-70
2022/04/14 09:10:53;;;;;;;;;22.25;20.25;;;;;18.14;55.48;101710.00;5156549;27;48151;-71
2022/04/14 09:13:20;;;;;;;;;25.75;22.00;;;;;18.28;55.24;101707.41;5157302;27;45515;-66
2022/04/14 09:15:47;;;;;;;;;29.25;24.25;;;;;18.23;55.27;101689.34;5157073;27;45428;-67
2022/04/14 09:18:13;;;;;;;;;26.00;24.25;;;;;18.49;54.88;101709.41;5156278;27;46544;-74
2022/04/14 09:20:41;;;;;;;;;40.75;28.75;;;;;18.63;54.65;101715.88;5156537;27;45478;-69
2022/04/14 09:23:20;;;;;;;;;25.00;22.50;;;;;18.55;54.24;101680.59;5155740;27;45289;-67
2022/04/14 09:25:50;;;;;;;;;39.75;34.25;;;;;18.70;53.61;101684.34;5138603;27;45562;-72
2022/04/14 09:28:17;;;;;;;;;32.75;30.25;;;;;18.90;53.17;101712.50;5156543;27;47204;-66
2022/04/14 09:31:07;;;;;;;;;23.25;21.00;;;;;19.21;52.32;101714.53;5156832;27;45488;-66
2022/04/14 09:33:44;;;;;;;;;23.25;19.25;;;;;19.36;51.76;101724.56;5156451;27;45331;-66
2022/04/14 09:36:17;;;;;;;;;30.00;23.75;;;;;19.46;51.85;101719.16;5156978;27;45482;-68
2022/04/14 09:39:07;;;;;;;;;21.75;19.75;;;;;19.54;51.17;101713.78;5156229;27;46816;-69
2022/04/14 09:41:33;;;;;;;;;23.75;21.25;;;;;19.62;51.29;101703.00;5156657;27;45430;-68
2022/04/14 09:44:02;;;;;;;;;26.50;21.00;;;;;19.53;51.03;101695.72;5156313;27;45551;-69
2022/04/14 09:46:29;;;;;;;;;40.00;31.75;;;;;19.66;50.41;101707.53;5156690;27;45467;-68
2022/04/14 09:49:10;;;;;;;;;33.25;29.75;;;;;19.69;51.04;101711.16;5156249;27;46348;-66
2022/04/14 09:51:43;;;;;;;;;31.50;22.00;;;;;19.77;49.79;101694.94;5155795;27;45410;-67
2022/04/14 09:54:12;;;;;;;;;21.25;18.75;;;;;19.83;49.97;101699.47;5156247;27;45252;-67
2022/04/14 09:56:54;;;;;;;;;16.33;15.67;;;;;19.92;49.61;101695.91;5156237;27;45276;-68
2022/04/14 09:59:24;;;;;;;;;25.75;24.25;;;;;19.99;49.81;101695.00;5157008;27;45459;-69
2022/04/14 10:02:11;;;;;;;;;20.50;20.50;;;;;20.05;49.27;101695.03;5157761;27;45294;-69
2022/04/14 10:04:44;;;;;;;;;21.50;19.00;;;;;20.12;49.31;101699.56;5158403;27;45519;-67
2022/04/14 10:07:13;;;;;;;;;22.50;18.50;;;;;20.10;48.15;101698.66;5158784;27;45524;-71
2022/04/14 10:09:41;;;;;;;;;20.00;16.00;;;;;19.82;48.49;101644.34;5157419;27;45362;-72
2022/04/14 10:12:29;;;;;;;;;19.33;17.33;;;;;20.29;47.26;101705.00;5155541;27;45434;-69
2022/04/14 10:15:05;;;;;;;;;17.33;15.67;;;;;20.28;47.30;101694.16;5155844;27;45257;-68
2022/04/14 10:17:33;;;;;;;;;18.67;15.33;;;;;20.38;47.49;101696.91;5156007;27;45319;-68
2022/04/14 10:19:59;;;;;;;;;12.50;11.50;;;;;20.25;46.89;101666.13;5155496;27;46236;-72
2022/04/14 10:22:26;;;;;;;;;17.33;16.33;;;;;20.46;45.96;101695.97;5155829;27;45248;-68
2022/04/14 10:24:53;;;;;;;;;17.33;16.00;;;;;20.29;46.51;101693.25;5155870;27;45430;-77
2022/04/14 10:27:20;;;;;;;;;20.50;18.00;;;;;20.37;46.78;101691.47;5155916;27;45464;-73
2022/04/14 10:29:47;;;;;;;;;17.33;14.00;;;;;20.29;46.11;101656.16;5155574;27;45894;-78
2022/04/14 10:32:14;;;;;;;;;16.67;16.67;;;;;20.47;46.28;101673.38;5155637;27;45392;-72
2022/04/14 10:34:40;;;;;;;;;13.00;11.33;;;;;20.51;46.41;101670.66;5156834;27;45365;-72
2022/04/14 10:37:08;;;;;;;;;16.33;13.00;;;;;20.61;45.81;101679.72;5159633;27;45478;-73
2022/04/14 10:39:42;;;;;;;;;16.67;14.33;;;;;20.71;45.66;101680.66;5159385;27;46493;-69
2022/04/14 10:42:10;;;;;;;;;11.00;8.67;;;;;20.71;44.49;101678.84;5158594;27;45465;-66
2022/04/14 10:44:44;;;;;;;;;20.67;19.33;;;;;20.78;43.28;101679.72;5158552;27;45354;-69
2022/04/14 10:47:10;;;;;;;;;63.25;48.25;;;;;20.83;43.96;101674.31;5159166;27;45390;-68
2022/04/14 10:49:39;;;;;;;;;20.50;13.75;;;;;20.65;43.85;101631.78;5158534;27;45993;-74
2022/04/14 10:52:25;;;;;;;;;11.00;8.33;;;;;20.68;43.43;101639.91;5159546;27;45422;-72
2022/04/14 10:55:01;;;;;;;;;8.67;8.00;;;;;20.98;43.36;101686.03;5158778;27;45475;-67
2022/04/14 10:57:40;;;;;;;;;12.00;9.33;;;;;21.02;43.50;101681.53;5158560;27;45494;-73
2022/04/14 11:00:32;;;;;;;;;12.33;10.67;;;;;21.09;43.51;101680.59;5157845;27;46361;-72
2022/04/14 11:03:13;;;;;;;;;14.00;11.00;;;;;21.13;43.75;101681.47;5149679;27;45539;-70
2022/04/14 11:05:45;;;;;;;;;11.00;9.00;;;;;21.12;43.00;101685.13;5158589;27;45387;-72
2022/04/14 11:08:21;;;;;;;;;10.67;10.67;;;;;21.07;42.99;101670.63;5158694;27;45364;-71
2022/04/14 11:11:16;;;;;;;;;10.33;10.33;;;;;21.11;43.26;101675.16;5158474;27;45407;-72